createdAt,value
2018-05-27T00:01:35.816Z,100159.64
2018-05-27T00:04:04.400Z,100166.74
2018-05-27T00:06:32.904Z,100156.69
2018-05-27T00:09:01.431Z,100161.02
2018-05-27T00:11:30.007Z,100166.64
2018-05-27T00:13:58.540Z,100162.83
2018-05-27T00:16:27.061Z,100162.73
2018-05-27T00:18:55.553Z,100157.26
2018-05-27T00:21:24.080Z,100159.17
2018-05-27T00:23:52.572Z,100152.63
2018-05-27T00:26:21.400Z,100149.23
2018-05-27T00:28:49.912Z,100156.64
2018-05-27T00:31:18.453Z,100148.96
2018-05-27T00:33:46.940Z,100152.80
2018-05-27T00:36:15.469Z,100151.28
2018-05-27T00:38:44.008Z,100150.34
2018-05-27T00:41:12.469Z,100158.59
2018-05-27T00:43:40.997Z,100160.77
2018-05-27T00:46:09.480Z,100163.67
2018-05-27T00:48:38.001Z,100156.55
2018-05-27T00:51:06.490Z,100152.02
2018-05-27T00:53:46.632Z,100155.06
2018-05-27T00:56:15.097Z,100154.09
2018-05-27T00:58:43.625Z,100157.30
2018-05-27T01:01:12.148Z,100156.20
2018-05-27T01:03:40.690Z,100164.30
2018-05-27T01:06:09.216Z,100153.34
2018-05-27T01:08:37.756Z,100150.72
2018-05-27T01:11:06.327Z,100146.88
2018-05-27T01:13:34.884Z,100154.70
2018-05-27T01:16:03.381Z,100158.15
2018-05-27T01:18:31.935Z,100155.27
2018-05-27T01:21:00.421Z,100160.03
2018-05-27T01:23:29.011Z,100156.45
2018-05-27T01:25:57.548Z,100153.69
2018-05-27T01:28:26.084Z,100144.21
2018-05-27T01:30:54.656Z,100150.97
2018-05-27T01:33:23.172Z,100144.38
2018-05-27T01:35:51.706Z,100148.47
2018-05-27T01:38:20.237Z,100135.98
2018-05-27T01:40:48.736Z,100150.26
2018-05-27T01:43:17.249Z,100150.24
2018-05-27T01:45:45.784Z,100152.43
2018-05-27T01:48:14.288Z,100141.75
2018-05-27T01:50:42.830Z,100133.97
2018-05-27T01:53:11.381Z,100138.35
2018-05-27T01:55:39.904Z,100153.03
2018-05-27T01:58:08.446Z,100151.51
2018-05-27T02:00:36.968Z,100133.78
2018-05-27T02:03:05.501Z,100155.61
2018-05-27T02:05:33.996Z,100154.00
2018-05-27T02:08:02.529Z,100146.41
2018-05-27T02:10:31.060Z,100159.98
2018-05-27T02:12:59.568Z,100160.39
2018-05-27T02:15:28.100Z,100162.48
2018-05-27T02:17:56.584Z,100158.91
2018-05-27T02:20:25.073Z,100163.84
2018-05-27T02:22:53.626Z,100161.34
2018-05-27T02:25:22.120Z,100161.08
2018-05-27T02:27:50.737Z,100164.77
2018-05-27T02:30:19.221Z,100163.25
2018-05-27T02:32:47.716Z,100161.06
2018-05-27T02:35:16.272Z,100171.98
2018-05-27T02:37:44.756Z,100174.88
2018-05-27T02:40:13.280Z,100177.31
2018-05-27T02:42:41.792Z,100183.37
2018-05-27T02:45:10.336Z,100184.16
2018-05-27T02:47:38.825Z,100188.14
2018-05-27T02:50:07.438Z,100188.00
2018-05-27T02:52:35.976Z,100183.72
2018-05-27T02:55:04.520Z,100183.00
2018-05-27T02:57:33.021Z,100176.97
2018-05-27T03:00:01.562Z,100179.45
2018-05-27T03:02:30.069Z,100183.02
2018-05-27T03:04:58.597Z,100177.94
2018-05-27T03:07:27.124Z,100174.22
2018-05-27T03:09:55.692Z,100175.03
2018-05-27T03:12:24.189Z,100177.94
2018-05-27T03:14:52.734Z,100179.27
2018-05-27T03:17:21.281Z,100168.09
2018-05-27T03:19:49.768Z,100185.03
2018-05-27T03:22:18.256Z,100177.94
2018-05-27T03:24:46.802Z,100186.47
2018-05-27T03:27:15.307Z,100185.20
2018-05-27T03:29:43.814Z,100192.36
2018-05-27T03:32:12.322Z,100192.89
2018-05-27T03:34:40.854Z,100188.46
2018-05-27T03:37:09.348Z,100186.91
2018-05-27T03:39:37.877Z,100187.59
2018-05-27T03:42:06.413Z,100187.70
2018-05-27T03:44:35.449Z,100192.60
2018-05-27T03:47:04.033Z,100191.47
2018-05-27T03:49:32.579Z,100177.90
2018-05-27T03:52:01.053Z,100198.45
2018-05-27T03:54:29.569Z,100190.78
2018-05-27T03:56:58.076Z,100207.66
2018-05-27T03:59:26.603Z,100209.51
2018-05-27T04:01:55.113Z,100207.83
2018-05-27T04:04:35.361Z,100202.87
2018-05-27T04:10:06.726Z,100197.09
2018-05-27T04:12:35.336Z,100190.15
2018-05-27T04:15:03.857Z,100188.56
2018-05-27T04:17:32.392Z,100178.50
2018-05-27T04:20:00.893Z,100177.66
2018-05-27T04:22:29.436Z,100170.15
2018-05-27T04:24:57.910Z,100174.02
2018-05-27T04:27:26.436Z,100181.77
2018-05-27T04:29:54.936Z,100176.01
2018-05-27T04:32:23.456Z,100187.20
2018-05-27T04:34:51.984Z,100185.77
2018-05-27T04:37:20.468Z,100187.77
2018-05-27T04:39:49.009Z,100189.02
2018-05-27T04:42:17.513Z,100191.31
2018-05-27T04:44:46.004Z,100195.51
2018-05-27T04:47:14.576Z,100194.55
2018-05-27T04:49:43.104Z,100191.25
2018-05-27T04:52:11.606Z,100197.37
2018-05-27T04:54:40.152Z,100199.05
2018-05-27T04:57:08.672Z,100192.11
2018-05-27T04:59:37.157Z,100191.05
2018-05-27T05:02:05.691Z,100196.02
2018-05-27T05:04:34.228Z,100199.23
2018-05-27T05:07:02.759Z,100189.72
2018-05-27T05:09:31.265Z,100184.78
2018-05-27T05:11:59.821Z,100184.98
2018-05-27T05:14:28.308Z,100184.98
2018-05-27T05:16:56.808Z,100173.81
2018-05-27T05:19:25.315Z,100188.14
2018-05-27T05:21:53.827Z,100187.67
2018-05-27T05:24:22.406Z,100191.76
2018-05-27T05:26:50.941Z,100183.86
2018-05-27T05:29:19.472Z,100190.41
2018-05-27T05:31:47.968Z,100204.34
2018-05-27T05:34:16.508Z,100203.50
2018-05-27T05:36:44.993Z,100202.48
2018-05-27T05:39:13.480Z,100202.61
2018-05-27T05:41:42.039Z,100200.48
2018-05-27T05:44:10.529Z,100199.85
2018-05-27T05:46:39.040Z,100208.38
2018-05-27T05:49:07.517Z,100205.59
2018-05-27T05:51:36.041Z,100207.36
2018-05-27T05:54:04.537Z,100204.09
2018-05-27T05:56:33.061Z,100209.53
2018-05-27T05:59:01.528Z,100189.43
2018-05-27T06:01:30.041Z,100206.37
2018-05-27T06:03:58.528Z,100210.55
2018-05-27T06:06:27.062Z,100211.45
2018-05-27T06:08:55.599Z,100213.25
2018-05-27T06:11:24.129Z,100212.70
2018-05-27T06:13:52.611Z,100209.98
2018-05-27T06:16:21.128Z,100207.26
2018-05-27T06:18:49.653Z,100212.56
2018-05-27T06:21:18.132Z,100208.59
2018-05-27T06:23:46.657Z,100207.30
2018-05-27T06:26:15.140Z,100213.75
2018-05-27T06:28:43.625Z,100216.00
2018-05-27T06:31:12.104Z,100217.03
2018-05-27T06:33:40.634Z,100207.09
2018-05-27T06:36:09.120Z,100220.67
2018-05-27T06:38:37.689Z,100211.25
2018-05-27T06:41:06.161Z,100206.08
2018-05-27T06:43:34.669Z,100219.36
2018-05-27T06:46:03.169Z,100211.48
2018-05-27T06:48:31.649Z,100216.69
2018-05-27T06:51:00.153Z,100222.20
2018-05-27T06:53:28.628Z,100217.72
2018-05-27T06:55:57.121Z,100226.11
2018-05-27T06:58:25.577Z,100224.72
2018-05-27T07:00:54.100Z,100226.05
2018-05-27T07:03:22.551Z,100220.13
2018-05-27T07:05:51.061Z,100216.55
2018-05-27T07:08:19.572Z,100215.88
2018-05-27T07:10:48.104Z,100216.32
2018-05-27T07:13:16.608Z,100212.18
2018-05-27T07:15:45.141Z,100218.73
2018-05-27T07:18:13.625Z,100215.44
2018-05-27T07:20:42.120Z,100222.41
2018-05-27T07:23:10.626Z,100217.98
2018-05-27T07:25:39.161Z,100216.02
2018-05-27T07:28:07.659Z,100218.27
2018-05-27T07:30:36.168Z,100218.09
2018-05-27T07:33:04.667Z,100220.99
2018-05-27T07:35:33.174Z,100217.06
2018-05-27T07:38:01.670Z,100225.64
2018-05-27T07:40:30.192Z,100229.64
2018-05-27T07:42:58.681Z,100233.67
2018-05-27T07:45:27.192Z,100233.48
2018-05-27T07:47:55.673Z,100227.97
2018-05-27T07:50:24.240Z,100237.02
2018-05-27T07:52:52.760Z,100235.74
2018-05-27T07:55:21.273Z,100238.23
2018-05-27T07:57:49.789Z,100240.86
2018-05-27T08:00:18.264Z,100240.69
2018-05-27T08:02:46.756Z,100249.23
2018-05-27T08:05:15.267Z,100234.46
2018-05-27T08:07:43.788Z,100231.31
2018-05-27T08:10:12.244Z,100249.69
2018-05-27T08:12:40.772Z,100251.44
2018-05-27T08:15:09.288Z,100239.21
2018-05-27T08:17:37.769Z,100246.53
2018-05-27T08:20:06.297Z,100246.12
2018-05-27T08:22:34.777Z,100246.55
2018-05-27T08:25:03.272Z,100248.67
2018-05-27T08:27:31.794Z,100258.22
2018-05-27T08:30:00.288Z,100258.31
2018-05-27T08:32:28.745Z,100250.34
2018-05-27T08:34:57.266Z,100247.48
2018-05-27T08:37:25.744Z,100236.89
2018-05-27T08:39:54.257Z,100249.75
2018-05-27T08:42:22.732Z,100247.13
2018-05-27T08:44:51.240Z,100253.38
2018-05-27T08:47:19.744Z,100256.38
2018-05-27T08:49:48.264Z,100243.69
2018-05-27T08:52:16.760Z,100254.80
2018-05-27T08:54:45.291Z,100263.40
2018-05-27T08:57:13.762Z,100259.42
2018-05-27T08:59:42.276Z,100243.82
2018-05-27T09:02:10.725Z,100256.68
2018-05-27T09:04:39.240Z,100260.05
2018-05-27T09:07:07.718Z,100254.98
2018-05-27T09:09:36.172Z,100258.52
2018-05-27T09:12:04.672Z,100259.96
2018-05-27T09:14:33.119Z,100260.89
2018-05-27T09:17:01.634Z,100254.37
2018-05-27T09:19:30.088Z,100256.61
2018-05-27T09:21:58.579Z,100253.66
2018-05-27T09:24:27.036Z,100261.09
2018-05-27T09:26:55.519Z,100223.08
2018-05-27T09:29:23.969Z,100251.09
2018-05-27T09:31:52.456Z,100251.09
2018-05-27T09:34:20.900Z,100249.88
2018-05-27T09:36:49.400Z,100251.23
2018-05-27T09:39:17.903Z,100247.02
2018-05-27T09:41:46.388Z,100249.86
2018-05-27T09:44:14.896Z,100232.45
2018-05-27T09:46:43.413Z,100240.34
2018-05-27T09:49:11.871Z,100244.20
2018-05-27T09:51:40.373Z,100247.79
2018-05-27T09:54:08.821Z,100241.48
2018-05-27T09:56:37.273Z,100228.86
2018-05-27T09:59:05.772Z,100240.65
2018-05-27T10:01:34.232Z,100238.97
2018-05-27T10:04:02.728Z,100237.80
2018-05-27T10:06:31.240Z,100236.87
2018-05-27T10:08:59.736Z,100223.78
2018-05-27T10:11:28.232Z,100224.25
2018-05-27T10:13:56.724Z,100233.63
2018-05-27T10:16:25.208Z,100227.75
2018-05-27T10:18:53.708Z,100229.27
2018-05-27T10:21:22.159Z,100222.23
2018-05-27T10:23:50.656Z,100221.94
2018-05-27T10:26:19.109Z,100217.27
2018-05-27T10:28:47.611Z,100219.09
2018-05-27T10:31:16.096Z,100203.40
2018-05-27T10:33:44.605Z,100216.02
2018-05-27T10:36:13.084Z,100213.95
2018-05-27T10:38:41.611Z,100210.30
2018-05-27T10:41:10.104Z,100208.14
2018-05-27T10:43:38.553Z,100201.38
2018-05-27T10:46:07.043Z,100212.69
2018-05-27T10:48:35.523Z,100209.07
2018-05-27T10:51:03.981Z,100205.36
2018-05-27T10:53:32.516Z,100210.58
2018-05-27T10:56:00.992Z,100199.98
2018-05-27T10:58:29.484Z,100193.74
2018-05-27T11:00:57.940Z,100190.66
2018-05-27T11:03:26.441Z,100188.95
2018-05-27T11:05:54.977Z,100189.02
2018-05-27T11:08:23.457Z,100175.50
2018-05-27T11:10:51.918Z,100173.29
2018-05-27T11:13:20.419Z,100163.95
2018-05-27T11:15:49.069Z,100172.36
2018-05-27T11:18:17.524Z,100157.95
2018-05-27T11:20:46.083Z,100165.11
2018-05-27T11:23:14.505Z,100159.34
2018-05-27T11:25:42.996Z,100171.88
2018-05-27T11:28:11.484Z,100170.58
2018-05-27T11:30:39.992Z,100157.92
2018-05-27T11:33:08.444Z,100163.56
2018-05-27T11:35:36.939Z,100158.27
2018-05-27T11:38:05.433Z,100149.65
2018-05-27T11:40:33.888Z,100150.38
2018-05-27T11:43:02.394Z,100154.38
2018-05-27T11:45:30.920Z,100151.53
2018-05-27T11:47:59.408Z,100152.36
2018-05-27T11:50:27.933Z,100151.34
2018-05-27T11:52:56.385Z,100142.41
2018-05-27T11:55:24.860Z,100147.26
2018-05-27T11:57:53.345Z,100128.92
2018-05-27T12:00:21.796Z,100140.12
2018-05-27T12:02:50.317Z,100141.89
2018-05-27T12:05:18.768Z,100137.95
2018-05-27T12:07:47.267Z,100129.25
2018-05-27T12:10:15.716Z,100141.11
2018-05-27T12:12:44.212Z,100137.69
2018-05-27T12:15:12.665Z,100136.52
2018-05-27T12:17:41.161Z,100135.12
2018-05-27T12:20:09.697Z,100132.13
2018-05-27T12:22:38.208Z,100132.63
2018-05-27T12:25:06.729Z,100127.23
2018-05-27T12:27:35.176Z,100130.73
2018-05-27T12:30:03.739Z,100118.45
2018-05-27T12:32:32.198Z,100117.97
2018-05-27T12:35:00.720Z,100119.87
2018-05-27T12:37:29.180Z,100123.52
2018-05-27T12:39:57.662Z,100116.38
2018-05-27T12:42:26.156Z,100110.30
2018-05-27T12:44:54.668Z,100107.98
2018-05-27T12:47:23.134Z,100106.52
2018-05-27T12:49:51.646Z,100091.80
2018-05-27T12:52:20.097Z,100098.09
2018-05-27T12:54:48.555Z,100080.10
2018-05-27T12:57:17.048Z,100089.58
2018-05-27T12:59:45.503Z,100089.98
2018-05-27T13:02:14.022Z,100087.28
2018-05-27T13:04:42.529Z,100083.07
2018-05-27T13:07:11.076Z,100084.27
2018-05-27T13:09:39.564Z,100085.56
2018-05-27T13:12:08.085Z,100067.20
2018-05-27T13:14:36.569Z,100075.73
2018-05-27T13:17:05.083Z,100078.12
2018-05-27T13:19:33.684Z,100078.14
2018-05-27T13:22:02.137Z,100083.12
2018-05-27T13:24:30.680Z,100082.97
2018-05-27T13:26:59.140Z,100067.98
2018-05-27T13:29:27.651Z,100079.08
2018-05-27T13:31:56.142Z,100077.59
2018-05-27T13:34:24.652Z,100078.14
2018-05-27T13:36:53.108Z,100076.29
2018-05-27T13:39:21.599Z,100075.63
2018-05-27T13:41:50.056Z,100065.83
2018-05-27T13:44:18.541Z,100072.63
2018-05-27T13:46:47.083Z,100064.05
2018-05-27T13:49:15.584Z,100055.53
2018-05-27T13:51:44.117Z,100062.76
2018-05-27T13:54:12.620Z,100064.01
2018-05-27T13:56:41.074Z,100058.66
2018-05-27T13:59:09.532Z,100051.77
2018-05-27T14:01:38.040Z,100055.77
2018-05-27T14:04:06.562Z,100055.70
2018-05-27T14:06:35.056Z,100056.00
2018-05-27T14:09:03.710Z,100046.02
2018-05-27T14:11:32.229Z,100043.51
2018-05-27T14:14:00.721Z,100052.63
2018-05-27T14:16:29.212Z,100055.89
2018-05-27T14:18:57.724Z,100057.09
2018-05-27T14:21:26.257Z,100054.18
2018-05-27T14:23:54.716Z,100050.34
2018-05-27T14:26:23.215Z,100054.54
2018-05-27T14:28:51.724Z,100049.52
2018-05-27T14:31:20.220Z,100056.66
2018-05-27T14:33:48.712Z,100046.03
2018-05-27T14:36:17.201Z,100079.25
2018-05-27T14:38:45.777Z,100089.55
2018-05-27T14:41:14.269Z,100086.22
2018-05-27T14:43:42.774Z,100084.77
2018-05-27T14:46:11.273Z,100097.29
2018-05-27T14:48:39.779Z,100097.23
2018-05-27T14:51:08.268Z,100098.73
2018-05-27T14:53:36.740Z,100095.41
2018-05-27T14:56:05.282Z,100102.06
2018-05-27T14:58:33.782Z,100103.36
2018-05-27T15:01:02.233Z,100099.02
2018-05-27T15:03:30.724Z,100096.41
2018-05-27T15:05:59.183Z,100095.03
2018-05-27T15:08:27.673Z,100091.37
2018-05-27T15:10:56.151Z,100085.81
2018-05-27T15:13:24.647Z,100076.63
2018-05-27T15:15:53.165Z,100064.33
2018-05-27T15:18:21.658Z,100068.59
2018-05-27T15:20:50.172Z,100059.30
2018-05-27T15:23:18.629Z,100040.56
2018-05-27T15:25:47.125Z,100050.16
2018-05-27T15:28:15.600Z,100054.17
2018-05-27T15:30:44.097Z,100049.75
2018-05-27T15:33:12.581Z,100052.73
2018-05-27T15:35:41.136Z,100058.98
2018-05-27T15:38:09.599Z,100060.05
2018-05-27T15:40:38.089Z,100058.72
2018-05-27T15:43:06.544Z,100050.08
2018-05-27T15:45:35.092Z,100054.63
2018-05-27T15:48:03.556Z,100057.06
2018-05-27T15:50:32.040Z,100057.61
2018-05-27T15:53:00.577Z,100054.02
2018-05-27T15:55:29.070Z,100055.45
2018-05-27T15:57:57.555Z,100050.83
2018-05-27T16:00:26.052Z,100060.09
2018-05-27T16:02:54.549Z,100051.80
2018-05-27T16:05:23.064Z,100069.23
2018-05-27T16:07:51.509Z,100072.19
2018-05-27T16:10:20.036Z,100072.28
2018-05-27T16:12:48.524Z,100070.95
2018-05-27T16:15:17.028Z,100077.19
2018-05-27T16:17:45.516Z,100072.91
2018-05-27T16:20:14.029Z,100059.16
2018-05-27T16:22:42.508Z,100068.13
2018-05-27T16:25:11.029Z,100076.95
2018-05-27T16:27:39.521Z,100077.36
2018-05-27T16:30:08.015Z,100080.57
2018-05-27T16:32:36.504Z,100073.91
2018-05-27T16:35:05.016Z,100081.00
2018-05-27T16:37:33.511Z,100060.52
2018-05-27T16:40:01.973Z,100080.86
2018-05-27T16:42:30.489Z,100085.66
2018-05-27T16:44:58.945Z,100085.84
2018-05-27T16:47:27.478Z,100084.38
2018-05-27T16:49:56.004Z,100080.63
2018-05-27T16:52:24.456Z,100070.76
2018-05-27T16:54:52.916Z,100079.55
2018-05-27T16:57:21.477Z,100090.09
2018-05-27T16:59:49.931Z,100098.65
2018-05-27T17:02:18.429Z,100104.11
2018-05-27T17:04:46.894Z,100106.39
2018-05-27T17:07:15.408Z,100109.72
2018-05-27T17:09:43.913Z,100107.74
2018-05-27T17:12:12.397Z,100104.78
2018-05-27T17:14:40.860Z,100108.22
2018-05-27T17:17:09.349Z,100108.20
2018-05-27T17:19:37.817Z,100112.00
2018-05-27T17:22:06.322Z,100123.19
2018-05-27T17:24:34.836Z,100114.95
2018-05-27T17:27:03.355Z,100124.19
2018-05-27T17:29:31.808Z,100123.36
2018-05-27T17:32:00.284Z,100117.79
2018-05-27T17:34:28.821Z,100122.52
2018-05-27T17:36:57.368Z,100113.62
2018-05-27T17:39:25.840Z,100116.88
2018-05-27T17:41:54.324Z,100129.34
2018-05-27T17:44:22.921Z,100131.27
2018-05-27T17:46:51.413Z,100131.56
2018-05-27T17:49:19.903Z,100132.42
2018-05-27T17:51:48.368Z,100132.53
2018-05-27T17:54:16.928Z,100129.00
2018-05-27T17:56:45.408Z,100137.10
2018-05-27T17:59:13.860Z,100147.74
2018-05-27T18:01:42.364Z,100155.70
2018-05-27T18:04:10.860Z,100159.69
2018-05-27T18:06:39.420Z,100138.95
2018-05-27T18:09:07.904Z,100159.70
2018-05-27T18:11:36.436Z,100167.05
2018-05-27T18:14:04.972Z,100166.86
2018-05-27T18:16:33.424Z,100169.97
2018-05-27T18:19:01.936Z,100170.70
2018-05-27T18:21:30.390Z,100177.82
2018-05-27T18:23:58.884Z,100182.34
2018-05-27T18:26:27.349Z,100183.42
2018-05-27T18:28:55.870Z,100185.88
2018-05-27T18:31:24.325Z,100197.36
2018-05-27T18:33:52.812Z,100195.39
2018-05-27T18:36:21.265Z,100198.97
2018-05-27T18:38:49.838Z,100200.75
2018-05-27T18:41:18.302Z,100200.55
2018-05-27T18:43:46.801Z,100205.16
2018-05-27T18:46:15.324Z,100207.83
2018-05-27T18:48:43.824Z,100195.47
2018-05-27T18:51:12.308Z,100208.02
2018-05-27T18:53:40.796Z,100216.41
2018-05-27T18:56:09.261Z,100217.41
2018-05-27T18:58:37.712Z,100221.69
2018-05-27T19:01:06.250Z,100224.69
2018-05-27T19:03:34.769Z,100222.59
2018-05-27T19:06:03.220Z,100224.18
2018-05-27T19:08:31.673Z,100224.48
2018-05-27T19:11:00.124Z,100231.28
2018-05-27T19:13:28.638Z,100234.48
2018-05-27T19:15:57.164Z,100228.09
2018-05-27T19:18:25.665Z,100235.91
2018-05-27T19:20:54.173Z,100242.42
2018-05-27T19:23:22.657Z,100236.32
2018-05-27T19:25:51.115Z,100219.78
2018-05-27T19:28:19.619Z,100246.30
2018-05-27T19:30:48.073Z,100243.02
2018-05-27T19:33:16.536Z,100241.37
2018-05-27T19:35:45.028Z,100247.30
2018-05-27T19:38:13.484Z,100236.71
2018-05-27T19:40:41.982Z,100248.35
2018-05-27T19:43:10.480Z,100247.84
2018-05-27T19:45:38.945Z,100248.86
2018-05-27T19:48:07.408Z,100257.55
2018-05-27T19:50:35.892Z,100259.42
2018-05-27T19:53:04.441Z,100262.59
2018-05-27T19:55:32.896Z,100252.23
2018-05-27T19:58:01.394Z,100257.45
2018-05-27T20:00:29.859Z,100246.88
2018-05-27T20:02:58.347Z,100262.59
2018-05-27T20:05:26.849Z,100251.35
2018-05-27T20:07:55.349Z,100252.68
2018-05-27T20:10:23.818Z,100243.86
2018-05-27T20:12:52.331Z,100254.11
2018-05-27T20:15:20.796Z,100256.40
2018-05-27T20:17:49.297Z,100255.92
2018-05-27T20:20:17.806Z,100260.69
2018-05-27T20:22:46.273Z,100262.75
2018-05-27T20:25:14.784Z,100269.19
2018-05-27T20:27:43.244Z,100260.78
2018-05-27T20:30:11.759Z,100258.20
2018-05-27T20:32:40.217Z,100264.34
2018-05-27T20:35:08.745Z,100266.55
2018-05-27T20:37:37.208Z,100264.25
2018-05-27T20:40:05.715Z,100270.10
2018-05-27T20:42:34.213Z,100276.69
2018-05-27T20:45:02.751Z,100275.50
2018-05-27T20:47:31.228Z,100278.78
2018-05-27T20:49:59.785Z,100275.73
2018-05-27T20:52:28.252Z,100256.25
2018-05-27T20:54:56.757Z,100269.66
2018-05-27T20:57:25.271Z,100273.27
2018-05-27T20:59:53.756Z,100271.73
2018-05-27T21:02:22.213Z,100277.24
2018-05-27T21:04:50.708Z,100275.33
2018-05-27T21:07:19.164Z,100273.55
2018-05-27T21:09:47.705Z,100271.01
2018-05-27T21:12:16.209Z,100277.84
2018-05-27T21:14:44.721Z,100274.13
2018-05-27T21:17:13.208Z,100274.80
2018-05-27T21:19:41.664Z,100275.73
2018-05-27T21:22:10.153Z,100275.82
2018-05-27T21:24:38.608Z,100264.80
2018-05-27T21:27:07.112Z,100270.39
2018-05-27T21:29:35.575Z,100270.34
2018-05-27T21:32:04.084Z,100269.49
2018-05-27T21:34:32.577Z,100266.48
2018-05-27T21:37:01.038Z,100275.33
2018-05-27T21:39:29.540Z,100266.00
2018-05-27T21:41:57.997Z,100263.61
2018-05-27T21:44:26.496Z,100253.24
2018-05-27T21:46:54.961Z,100259.90
2018-05-27T21:49:23.456Z,100256.48
2018-05-27T21:51:51.918Z,100252.99
2018-05-27T21:54:20.433Z,100265.53
2018-05-27T21:56:48.906Z,100264.68
2018-05-27T21:59:17.412Z,100266.30
2018-05-27T22:01:45.901Z,100268.48
2018-05-27T22:04:14.394Z,100264.91
2018-05-27T22:06:42.896Z,100267.22
2018-05-27T22:09:11.364Z,100265.92
2018-05-27T22:11:39.872Z,100260.85
2018-05-27T22:14:08.380Z,100257.86
2018-05-27T22:16:36.870Z,100259.09
2018-05-27T22:19:05.342Z,100249.95
2018-05-27T22:21:33.844Z,100241.31
2018-05-27T22:24:02.305Z,100253.80
2018-05-27T22:26:30.810Z,100245.89
2018-05-27T22:28:59.299Z,100248.31
2018-05-27T22:31:27.752Z,100241.53
2018-05-27T22:33:56.245Z,100243.78
2018-05-27T22:36:24.770Z,100241.76
2018-05-27T22:38:53.229Z,100222.48
2018-05-27T22:41:21.728Z,100241.64
2018-05-27T22:43:50.179Z,100237.62
2018-05-27T22:46:18.672Z,100236.19
2018-05-27T22:48:47.169Z,100240.63
2018-05-27T22:51:15.630Z,100225.38
2018-05-27T22:53:44.120Z,100231.02
2018-05-27T22:56:12.617Z,100227.03
2018-05-27T22:58:41.114Z,100236.02
2018-05-27T23:01:09.632Z,100238.58
2018-05-27T23:03:38.183Z,100242.20
2018-05-27T23:06:06.730Z,100240.25
2018-05-27T23:08:35.270Z,100239.31
2018-05-27T23:11:03.778Z,100239.48
2018-05-27T23:13:32.344Z,100225.23
2018-05-27T23:16:00.837Z,100226.14
2018-05-27T23:18:29.349Z,100233.73
2018-05-27T23:20:57.865Z,100230.67
2018-05-27T23:23:26.384Z,100219.63
2018-05-27T23:25:54.904Z,100226.66
2018-05-27T23:28:23.375Z,100234.58
2018-05-27T23:30:51.894Z,100223.00
2018-05-27T23:33:20.370Z,100225.20
2018-05-27T23:35:48.912Z,100220.41
2018-05-27T23:38:17.369Z,100222.30
2018-05-27T23:40:45.857Z,100220.29
2018-05-27T23:43:14.377Z,100218.81
2018-05-27T23:45:42.849Z,100203.00
2018-05-27T23:48:11.361Z,100224.31
2018-05-27T23:50:39.889Z,100226.66
2018-05-27T23:53:08.372Z,100229.14
2018-05-27T23:55:36.876Z,100235.55
2018-05-27T23:58:05.408Z,100233.74
